Terminal Aerodrome Forecast
Issued by NWS Northern Indiana

Home | Current Version | Previous Version | Graphics & Text | Print | Product List | Glossary On
Versions: 1 2 3 4 5 6 7 8 9 10 11 12 13 14 15 16 17 18
384
FTUS43 KIWX 271448 AAA
TAFFWA
TAF AMD
KFWA 271448Z 2715/2812 16007KT P6SM FEW050 BKN150
      TEMPO 2717/2720 4SM -TSRA BR BKN040CB
     FM272200 18006KT P6SM BKN100
     FM280700 VRB03KT 3SM BR BKN150=

USA.gov is the U.S. government's official web portal to all federal, state and local government web resources and services.